Time;durP1;ratioP1;P1;durP2;ratioP2;P2;SDS_P1;SDS_P2;PMS_P1;PMS_P2;Temp;Humidity;BMP_temperature;BMP_pressure;BME280_temperature;BME280_humidity;BME280_pressure;Samples;Min_cycle;Max_cycle;Signal;HPM_P1;HPM_P2
2022/08/16 00:05:43;;;;;;;1.37;0.77;;;20.50;99.90;;;;;;6729092;88;20189;-78
2022/08/16 00:15:47;;;;;;;1.10;0.60;;;20.40;99.90;;;;;;6725809;88;20664;-78
2022/08/16 00:25:47;;;;;;;1.20;0.70;;;20.50;99.90;;;;;;6727541;88;20254;-79
2022/08/16 00:35:48;;;;;;;1.48;0.70;;;20.60;99.90;;;;;;6727839;88;20357;-79
2022/08/16 00:46:20;;;;;;;1.08;0.65;;;20.50;99.90;;;;;;6724302;88;20229;-78
2022/08/16 00:56:25;;;;;;;0.70;0.43;;;20.60;99.90;;;;;;6728278;88;20748;-79
2022/08/16 01:06:25;;;;;;;1.17;0.70;;;20.60;99.90;;;;;;6728355;88;20200;-78
2022/08/16 01:16:27;;;;;;;0.93;0.47;;;20.50;99.90;;;;;;6724281;88;20192;-79
2022/08/16 01:26:30;;;;;;;0.88;0.50;;;20.40;99.90;;;;;;6727979;88;20225;-79
2022/08/16 01:36:33;;;;;;;1.10;0.52;;;20.50;99.90;;;;;;6727783;88;20193;-79
2022/08/16 01:46:43;;;;;;;1.08;0.68;;;20.60;99.90;;;;;;6724388;88;20289;-78
2022/08/16 01:56:43;;;;;;;1.10;0.70;;;20.40;99.90;;;;;;6727630;88;20207;-79
2022/08/16 02:06:44;;;;;;;1.00;0.65;;;20.50;99.90;;;;;;6723473;88;20189;-79
2022/08/16 02:16:44;;;;;;;1.20;0.65;;;20.50;99.90;;;;;;6724495;88;20789;-79
2022/08/16 02:26:45;;;;;;;1.52;0.70;;;20.60;99.90;;;;;;6727130;88;20620;-78
2022/08/16 02:36:46;;;;;;;1.20;0.60;;;20.60;99.90;;;;;;6726926;88;20196;-78
2022/08/16 02:46:47;;;;;;;2.25;0.70;;;20.50;99.90;;;;;;6730498;88;20331;-79
2022/08/16 02:56:47;;;;;;;1.60;0.82;;;20.30;99.90;;;;;;6729833;88;20192;-78
2022/08/16 03:06:50;;;;;;;1.30;0.70;;;20.10;99.90;;;;;;6724830;88;20212;-78
2022/08/16 03:16:52;;;;;;;1.70;0.62;;;19.80;99.90;;;;;;6728928;88;20243;-78
2022/08/16 03:26:54;;;;;;;1.35;0.82;;;19.60;99.90;;;;;;6725471;88;20214;-78
2022/08/16 03:36:54;;;;;;;2.55;0.70;;;19.50;99.90;;;;;;6728655;88;20230;-78
2022/08/16 03:46:55;;;;;;;1.20;0.70;;;19.40;99.90;;;;;;6725219;88;20200;-78
2022/08/16 03:56:55;;;;;;;1.77;0.70;;;19.30;99.90;;;;;;6726369;88;20218;-78
2022/08/16 04:06:56;;;;;;;1.50;0.85;;;19.20;99.90;;;;;;6727373;88;20729;-79
2022/08/16 04:16:56;;;;;;;1.60;0.90;;;19.20;99.90;;;;;;6723981;88;20197;-79
2022/08/16 04:26:57;;;;;;;0.82;0.50;;;19.00;99.90;;;;;;6727273;88;20222;-77
2022/08/16 04:36:58;;;;;;;1.30;0.80;;;19.10;99.90;;;;;;6711733;88;20187;-79
2022/08/16 04:46:59;;;;;;;0.93;0.60;;;19.30;99.90;;;;;;6720807;88;20393;-78
2022/08/16 04:56:59;;;;;;;1.33;0.82;;;19.40;99.90;;;;;;6711731;88;20420;-78
2022/08/16 05:07:00;;;;;;;1.08;0.55;;;19.40;99.90;;;;;;6721268;88;20329;-78
2022/08/16 05:17:00;;;;;;;1.67;0.90;;;19.30;99.90;;;;;;6730014;88;20349;-78
2022/08/16 05:27:01;;;;;;;1.77;0.90;;;19.40;99.90;;;;;;6726957;88;20224;-78
2022/08/16 05:47:05;;;;;;;1.40;0.82;;;19.40;99.90;;;;;;6708986;88;20329;-76
2022/08/16 05:57:05;;;;;;;1.77;0.90;;;19.70;99.90;;;;;;6709345;88;20657;-78
2022/08/16 06:07:06;;;;;;;1.45;0.73;;;20.10;99.90;;;;;;6702587;88;20226;-80
2022/08/16 06:17:07;;;;;;;1.65;0.90;;;20.40;99.90;;;;;;6703666;88;20596;-78
2022/08/16 06:27:07;;;;;;;1.30;0.70;;;20.80;99.90;;;;;;6704277;88;20197;-77
2022/08/16 06:37:08;;;;;;;1.25;0.70;;;21.00;99.90;;;;;;6719306;88;20186;-78
2022/08/16 06:47:09;;;;;;;1.20;0.80;;;21.40;99.90;;;;;;6721973;88;20197;-78
2022/08/16 06:57:10;;;;;;;1.50;0.90;;;22.00;99.90;;;;;;6702227;88;20198;-79
2022/08/16 07:07:10;;;;;;;1.67;0.85;;;22.30;99.90;;;;;;6691872;88;20253;-77
2022/08/16 07:17:11;;;;;;;1.63;1.00;;;22.60;99.90;;;;;;6712411;88;20416;-78
2022/08/16 07:27:12;;;;;;;1.48;0.82;;;23.30;99.90;;;;;;6715870;88;20221;-77
2022/08/16 07:37:17;;;;;;;2.12;1.10;;;23.60;99.90;;;;;;6706503;88;20268;-80
2022/08/16 07:47:17;;;;;;;1.27;0.77;;;24.20;99.90;;;;;;6705143;88;20609;-78
2022/08/16 07:57:18;;;;;;;1.40;1.00;;;24.70;99.90;;;;;;6703770;88;20212;-77
2022/08/16 08:07:18;;;;;;;1.55;1.00;;;25.00;99.90;;;;;;6704939;88;20217;-78
2022/08/16 08:17:19;;;;;;;1.50;1.00;;;25.40;99.90;;;;;;6705790;88;20370;-77
2022/08/16 08:27:20;;;;;;;1.37;0.98;;;26.10;99.90;;;;;;6713871;88;20722;-80
2022/08/16 08:37:21;;;;;;;1.47;1.07;;;26.00;99.90;;;;;;6703239;88;20186;-78
2022/08/16 08:47:22;;;;;;;1.40;0.90;;;26.60;99.90;;;;;;6704213;88;20585;-77
2022/08/16 08:57:22;;;;;;;1.48;1.00;;;26.90;99.90;;;;;;6703499;88;20199;-78
2022/08/16 09:07:23;;;;;;;1.57;1.10;;;27.50;99.90;;;;;;6714912;88;20821;-78
2022/08/16 09:17:24;;;;;;;1.50;1.05;;;27.70;99.90;;;;;;6713919;88;20209;-78
2022/08/16 09:27:25;;;;;;;1.77;1.13;;;29.80;98.00;;;;;;6722258;88;20358;-78
2022/08/16 09:37:29;;;;;;;1.87;1.20;;;30.30;96.20;;;;;;6722899;88;20193;-78
2022/08/16 09:47:29;;;;;;;1.40;1.00;;;31.40;94.60;;;;;;6722937;88;20197;-79
2022/08/16 09:57:30;;;;;;;1.58;1.02;;;32.20;93.20;;;;;;6725534;88;20182;-78
2022/08/16 10:07:31;;;;;;;1.73;1.23;;;33.10;91.50;;;;;;6727578;88;20247;-78
2022/08/16 10:17:32;;;;;;;1.40;1.10;;;32.60;91.90;;;;;;6709164;88;20257;-78
2022/08/16 10:27:34;;;;;;;1.20;1.00;;;33.50;90.30;;;;;;6725083;88;20194;-79
2022/08/16 10:37:34;;;;;;;1.55;1.00;;;34.00;88.90;;;;;;6725129;88;20791;-79
2022/08/16 10:47:35;;;;;;;1.50;1.10;;;33.70;88.10;;;;;;6716705;88;20326;-78
2022/08/16 10:57:36;;;;;;;1.20;0.90;;;33.90;87.30;;;;;;6711787;88;20352;-79
2022/08/16 11:07:39;;;;;;;1.90;1.30;;;35.70;84.10;;;;;;6715478;88;20194;-78
2022/08/16 11:17:40;;;;;;;1.45;1.00;;;34.70;82.70;;;;;;6712330;88;20239;-78
2022/08/16 11:27:40;;;;;;;1.47;1.10;;;36.50;81.00;;;;;;6714166;88;20304;-79
2022/08/16 11:47:44;;;;;;;1.50;0.95;;;37.60;75.40;;;;;;6726696;88;20213;-80
2022/08/16 11:57:45;;;;;;;1.20;0.95;;;37.90;73.40;;;;;;6723078;88;20973;-78
2022/08/16 12:07:46;;;;;;;1.57;1.00;;;37.40;70.70;;;;;;6715706;88;20560;-78
2022/08/16 12:17:46;;;;;;;1.58;0.90;;;35.70;68.60;;;;;;6724228;88;20714;-79
2022/08/16 12:27:49;;;;;;;1.23;0.93;;;35.80;68.80;;;;;;6723340;88;20245;-78
2022/08/16 12:37:50;;;;;;;1.27;1.00;;;36.50;68.30;;;;;;6722964;88;20560;-79
2022/08/16 12:58:12;;;;;;;1.87;1.10;;;36.70;63.90;;;;;;6740197;88;20266;-79
2022/08/16 13:08:17;;;;;;;1.10;0.90;;;36.60;60.80;;;;;;6735466;88;20246;-78
2022/08/16 13:18:18;;;;;;;1.62;1.02;;;37.40;61.30;;;;;;6732651;88;20194;-79
2022/08/16 13:28:19;;;;;;;1.80;1.15;;;37.80;62.00;;;;;;6732315;88;20214;-78
2022/08/16 13:38:20;;;;;;;1.42;1.20;;;37.90;62.20;;;;;;6731373;88;20302;-77
2022/08/16 13:48:20;;;;;;;1.57;1.10;;;38.10;63.00;;;;;;6734782;88;20189;-78
2022/08/16 13:58:22;;;;;;;1.35;1.00;;;37.70;62.60;;;;;;6735814;88;20229;-77
2022/08/16 14:08:23;;;;;;;1.50;1.00;;;37.10;62.80;;;;;;6735113;88;20687;-79
2022/08/16 14:18:23;;;;;;;1.40;1.10;;;36.10;63.10;;;;;;6736667;88;20202;-78
2022/08/16 14:28:24;;;;;;;1.62;0.98;;;35.20;63.90;;;;;;6736522;88;20244;-78
2022/08/16 14:38:24;;;;;;;;;;;34.50;64.10;;;;;;6738673;87;20188;-79
2022/08/16 14:48:25;;;;;;;1.20;0.90;;;33.00;66.10;;;;;;6738000;88;20583;-80
2022/08/16 14:58:26;;;;;;;1.50;0.90;;;32.20;66.90;;;;;;6715739;88;20244;-79
2022/08/16 15:08:26;;;;;;;1.20;0.80;;;32.00;66.70;;;;;;6733798;88;20636;-79
2022/08/16 15:18:27;;;;;;;1.67;1.00;;;31.80;66.60;;;;;;6738069;88;20210;-81
2022/08/16 15:28:27;;;;;;;1.20;0.88;;;31.80;67.70;;;;;;6733034;88;20155;-81
2022/08/16 15:38:29;;;;;;;1.37;0.83;;;31.70;67.90;;;;;;6737055;88;20312;-80
2022/08/16 15:48:30;;;;;;;;;;;31.50;68.30;;;;;;6726467;88;20169;-80
2022/08/16 15:58:31;;;;;;;1.90;0.98;;;31.20;68.80;;;;;;6738788;88;20505;-78
2022/08/16 16:08:32;;;;;;;2.08;0.90;;;31.30;69.10;;;;;;6728746;88;20202;-81
2022/08/16 16:18:33;;;;;;;1.20;0.93;;;31.20;69.00;;;;;;6737959;88;20606;-79
2022/08/16 16:28:35;;;;;;;1.17;0.82;;;31.40;68.80;;;;;;6733533;88;20204;-79
2022/08/16 16:38:36;;;;;;;2.45;0.80;;;31.10;69.50;;;;;;6733722;87;20278;-80
2022/08/16 16:48:38;;;;;;;1.47;0.80;;;31.30;69.30;;;;;;6757292;77;20199;-80
2022/08/16 16:58:59;;;;;;;1.35;0.90;;;31.00;69.10;;;;;;6753805;87;20529;-78
2022/08/16 17:08:59;;;;;;;1.70;1.33;;;31.10;69.20;;;;;;6750846;87;20185;-81
2022/08/16 17:19:05;;;;;;;1.33;0.93;;;30.90;70.20;;;;;;6753165;87;20196;-79
2022/08/16 17:29:05;;;;;;;3.72;1.25;;;30.70;70.20;;;;;;6753489;87;20277;-77
2022/08/16 17:39:07;;;;;;;1.15;0.80;;;31.30;69.20;;;;;;6742102;87;20274;-78
2022/08/16 17:49:07;;;;;;;1.70;1.15;;;31.70;68.40;;;;;;6746434;87;20201;-78
2022/08/16 17:59:08;;;;;;;1.23;0.82;;;31.50;69.20;;;;;;6745607;87;20997;-78
2022/08/16 18:09:09;;;;;;;1.35;0.95;;;30.60;70.70;;;;;;6746372;87;20680;-77
2022/08/16 18:19:09;;;;;;;1.60;0.90;;;30.10;72.00;;;;;;6751445;87;20180;-77
2022/08/16 18:29:10;;;;;;;2.47;0.80;;;29.70;73.60;;;;;;6750731;87;20180;-78
2022/08/16 18:39:12;;;;;;;1.70;1.00;;;29.30;73.10;;;;;;6746747;87;20244;-77
2022/08/16 18:49:13;;;;;;;1.77;1.08;;;28.90;75.00;;;;;;6749116;87;20794;-78
2022/08/16 18:59:14;;;;;;;1.48;1.10;;;28.70;75.00;;;;;;6751610;87;20203;-76
2022/08/16 19:09:14;;;;;;;1.85;1.23;;;28.20;76.10;;;;;;6757216;87;20997;-77
2022/08/16 19:19:15;;;;;;;1.80;1.20;;;27.90;76.80;;;;;;6751741;87;20209;-78
2022/08/16 19:29:16;;;;;;;1.45;1.02;;;27.50;77.80;;;;;;6747944;87;20240;-79
2022/08/16 19:39:16;;;;;;;2.58;1.10;;;27.10;79.30;;;;;;6751254;87;20232;-79
2022/08/16 19:49:17;;;;;;;2.60;1.30;;;26.80;80.00;;;;;;6751890;87;20270;-79
2022/08/16 19:59:18;;;;;;;4.53;1.40;;;26.50;80.60;;;;;;6747687;87;20198;-80
2022/08/16 20:09:20;;;;;;;1.60;1.05;;;26.20;81.50;;;;;;6749803;87;20188;-77
2022/08/16 20:19:21;;;;;;;3.12;1.25;;;25.80;82.60;;;;;;6756720;87;20196;-79
2022/08/16 20:29:22;;;;;;;2.70;1.42;;;25.70;84.10;;;;;;6775569;87;20289;-79
2022/08/16 20:39:22;;;;;;;3.62;1.37;;;25.70;84.10;;;;;;6780367;87;20175;-80
2022/08/16 20:49:23;;;;;;;1.45;1.02;;;25.60;84.20;;;;;;6756518;87;20314;-76
2022/08/16 20:59:24;;;;;;;2.40;1.45;;;25.70;83.90;;;;;;6748574;87;20188;-77
2022/08/16 21:09:27;;;;;;;1.53;1.00;;;25.50;85.40;;;;;;6751000;87;20217;-79
2022/08/16 21:19:28;;;;;;;1.80;1.12;;;25.00;86.80;;;;;;6750235;87;20200;-77
2022/08/16 21:29:29;;;;;;;2.20;1.20;;;24.70;88.30;;;;;;6749000;88;20212;-77
2022/08/16 21:39:30;;;;;;;1.50;0.90;;;24.50;89.20;;;;;;6747363;87;20185;-78
2022/08/16 21:49:30;;;;;;;1.83;1.12;;;24.20;90.30;;;;;;6748732;87;20208;-77
2022/08/16 21:59:31;;;;;;;1.70;1.08;;;23.90;91.30;;;;;;6747798;87;20225;-77
2022/08/16 22:09:31;;;;;;;1.73;0.85;;;23.80;92.30;;;;;;6749581;88;20251;-78
2022/08/16 22:19:32;;;;;;;1.80;1.00;;;23.60;92.80;;;;;;6749032;87;20314;-79
2022/08/16 22:29:32;;;;;;;1.42;1.10;;;23.60;93.30;;;;;;6750797;87;20182;-78
2022/08/16 22:39:33;;;;;;;2.70;1.00;;;23.50;94.20;;;;;;6749106;87;20311;-76
2022/08/16 22:49:34;;;;;;;1.83;1.00;;;23.50;95.10;;;;;;6747550;87;20555;-78
2022/08/16 22:59:35;;;;;;;2.65;1.20;;;23.30;96.10;;;;;;6752304;87;20521;-78
2022/08/16 23:09:35;;;;;;;1116.03;585.25;;;23.20;97.00;;;;;;6752587;87;20181;-77
2022/08/16 23:19:36;;;;;;;1999.90;999.90;;;23.10;97.70;;;;;;6751371;87;20221;-77
2022/08/16 23:29:37;;;;;;;1999.90;999.90;;;22.80;99.00;;;;;;6751320;87;20195;-77
2022/08/16 23:39:37;;;;;;;1999.90;999.90;;;22.60;99.90;;;;;;6745834;77;20250;-77
2022/08/16 23:49:38;;;;;;;1999.90;999.90;;;22.50;99.90;;;;;;6689331;88;20516;-77
2022/08/16 23:59:38;;;;;;;1999.90;999.90;;;22.40;99.90;;;;;;6681156;88;20772;-78
